Time;durP1;ratioP1;P1;durP2;ratioP2;P2;SDS_P1;SDS_P2;PMS_P1;PMS_P2;Temp;Humidity;BMP_temperature;BMP_pressure;BME280_temperature;BME280_humidity;BME280_pressure;Samples;Min_cycle;Max_cycle;Signal;HPM_P1;HPM_P2
2023/03/28 00:02:17;;;;;;;3.45;3.45;;;;;;;;;;4191881;28;20047;-64
2023/03/28 00:04:37;;;;;;;3.40;3.40;;;;;;;;;;4194054;28;20079;-64
2023/03/28 00:06:58;;;;;;;3.00;2.90;;;;;;;;;;4194737;28;20236;-63
2023/03/28 00:09:18;;;;;;;4.10;4.00;;;;;;;;;;4192099;28;20094;-64
2023/03/28 00:11:38;;;;;;;3.30;3.30;;;;;;;;;;4190442;28;20090;-63
2023/03/28 00:13:59;;;;;;;3.78;3.58;;;;;;;;;;4193751;28;20060;-64
2023/03/28 00:16:20;;;;;;;3.63;3.63;;;;;;;;;;4192134;28;20295;-64
2023/03/28 00:18:41;;;;;;;3.05;3.05;;;;;;;;;;4192274;28;20043;-64
2023/03/28 00:21:01;;;;;;;3.58;3.50;;;;;;;;;;4192805;28;20086;-63
2023/03/28 00:23:21;;;;;;;3.50;3.50;;;;;;;;;;4193935;28;20039;-63
2023/03/28 00:25:42;;;;;;;2.72;2.72;;;;;;;;;;4192641;28;20394;-63
2023/03/28 00:28:02;;;;;;;2.95;2.85;;;;;;;;;;4192230;28;20035;-64
2023/03/28 00:30:22;;;;;;;2.85;2.75;;;;;;;;;;4192930;28;20136;-64
2023/03/28 00:32:43;;;;;;;3.03;3.03;;;;;;;;;;4192524;28;20300;-64
2023/03/28 00:35:03;;;;;;;3.00;2.90;;;;;;;;;;4193322;28;20040;-64
2023/03/28 00:37:24;;;;;;;3.10;3.00;;;;;;;;;;4189099;28;20047;-58
2023/03/28 00:39:48;;;;;;;2.55;2.55;;;;;;;;;;4191098;28;20059;-58
2023/03/28 00:42:13;;;;;;;3.15;3.15;;;;;;;;;;4190342;28;20040;-58
2023/03/28 00:44:40;;;;;;;2.53;2.53;;;;;;;;;;4191633;28;20087;-58
2023/03/28 00:47:00;;;;;;;3.30;3.08;;;;;;;;;;4190389;28;20079;-58
2023/03/28 00:49:22;;;;;;;3.65;3.55;;;;;;;;;;4191922;28;20232;-58
2023/03/28 00:51:47;;;;;;;3.90;3.72;;;;;;;;;;4193524;28;20043;-58
2023/03/28 00:54:10;;;;;;;2.95;2.67;;;;;;;;;;4191964;28;20052;-58
2023/03/28 00:56:33;;;;;;;2.78;2.70;;;;;;;;;;4191875;28;20116;-57
2023/03/28 00:58:53;;;;;;;3.00;2.97;;;;;;;;;;4193375;28;20036;-57
2023/03/28 01:01:14;;;;;;;3.15;2.97;;;;;;;;;;4192847;28;20375;-58
2023/03/28 01:03:36;;;;;;;3.22;3.13;;;;;;;;;;4191957;28;20231;-58
2023/03/28 01:05:57;;;;;;;2.88;2.67;;;;;;;;;;4192908;28;20329;-58
2023/03/28 01:08:17;;;;;;;2.72;2.63;;;;;;;;;;4193463;28;20044;-58
2023/03/28 01:10:37;;;;;;;2.80;2.70;;;;;;;;;;4192427;28;20052;-58
2023/03/28 01:12:58;;;;;;;3.15;3.15;;;;;;;;;;4191449;28;20124;-59
2023/03/28 01:15:19;;;;;;;3.67;3.42;;;;;;;;;;4193096;28;20136;-58
2023/03/28 01:17:40;;;;;;;4.18;3.97;;;;;;;;;;4192367;28;20083;-58
2023/03/28 01:20:13;;;;;;;2.60;2.60;;;;;;;;;;4191770;28;20051;-58
2023/03/28 01:22:39;;;;;;;4.93;4.47;;;;;;;;;;4190563;28;20299;-58
2023/03/28 01:24:59;;;;;;;3.10;2.90;;;;;;;;;;4190890;28;20293;-59
2023/03/28 01:27:29;;;;;;;3.50;3.50;;;;;;;;;;4192005;28;20095;-58
2023/03/28 01:30:08;;;;;;;2.42;2.25;;;;;;;;;;4190172;28;20048;-58
2023/03/28 01:32:38;;;;;;;3.42;3.42;;;;;;;;;;4191195;28;20040;-58
2023/03/28 01:34:58;;;;;;;2.78;2.58;;;;;;;;;;4191492;28;20155;-58
2023/03/28 01:37:18;;;;;;;3.42;3.22;;;;;;;;;;4194926;28;20071;-59
2023/03/28 01:39:49;;;;;;;3.97;3.05;;;;;;;;;;4190992;28;20039;-58
2023/03/28 01:42:15;;;;;;;3.22;3.22;;;;;;;;;;4191980;28;20040;-58
2023/03/28 01:45:05;;;;;;;3.22;3.13;;;;;;;;;;4194106;28;20040;-59
2023/03/28 01:47:25;;;;;;;3.20;3.10;;;;;;;;;;4148665;28;20380;-59
2023/03/28 01:49:48;;;;;;;3.35;3.22;;;;;;;;;;4148637;28;20131;-58
2023/03/28 01:52:15;;;;;;;3.35;3.15;;;;;;;;;;4144943;28;20399;-58
2023/03/28 01:54:38;;;;;;;3.15;3.08;;;;;;;;;;4142644;28;20105;-58
2023/03/28 01:56:58;;;;;;;2.92;2.83;;;;;;;;;;4153959;28;20444;-58
2023/03/28 01:59:26;;;;;;;3.30;3.20;;;;;;;;;;4151673;28;20053;-57
2023/03/28 02:01:59;;;;;;;2.72;2.72;;;;;;;;;;4151687;28;20273;-58
2023/03/28 02:04:20;;;;;;;4.40;4.40;;;;;;;;;;4144625;28;20490;-58
2023/03/28 02:06:45;;;;;;;3.65;3.55;;;;;;;;;;4141187;28;20138;-58
2023/03/28 02:09:07;;;;;;;3.47;3.28;;;;;;;;;;4145011;28;20399;-58
2023/03/28 02:11:28;;;;;;;3.60;2.88;;;;;;;;;;4147358;28;20234;-58
2023/03/28 02:13:55;;;;;;;3.17;3.10;;;;;;;;;;4145700;28;20091;-58
2023/03/28 02:16:17;;;;;;;3.75;3.55;;;;;;;;;;4143883;28;20068;-58
2023/03/28 02:18:40;;;;;;;3.72;3.50;;;;;;;;;;4146527;28;20093;-58
2023/03/28 02:21:04;;;;;;;4.57;4.38;;;;;;;;;;4147649;28;20289;-58
2023/03/28 02:23:30;;;;;;;3.83;3.72;;;;;;;;;;4161298;28;20044;-58
2023/03/28 02:25:51;;;;;;;3.90;3.60;;;;;;;;;;4190296;28;20231;-58
2023/03/28 02:28:12;;;;;;;3.40;3.40;;;;;;;;;;4190459;28;20051;-58
2023/03/28 02:30:33;;;;;;;3.55;3.20;;;;;;;;;;4189807;28;20075;-58
2023/03/28 02:33:01;;;;;;;4.88;2.53;;;;;;;;;;4192327;28;20051;-58
2023/03/28 02:35:26;;;;;;;3.40;3.20;;;;;;;;;;4191171;28;20066;-58
2023/03/28 02:38:02;;;;;;;3.35;3.35;;;;;;;;;;4192613;28;20071;-58
2023/03/28 02:40:31;;;;;;;3.47;3.38;;;;;;;;;;4189239;28;20398;-58
2023/03/28 02:43:00;;;;;;;3.35;3.25;;;;;;;;;;4188773;28;20043;-58
2023/03/28 02:45:23;;;;;;;4.63;4.20;;;;;;;;;;4191470;28;20267;-58
2023/03/28 02:47:43;;;;;;;;;;;;;;;;;;4192468;28;20112;-58
2023/03/28 02:50:04;;;;;;;3.22;3.13;;;;;;;;;;4190598;28;20230;-58
2023/03/28 02:52:36;;;;;;;3.22;3.17;;;;;;;;;;4190167;28;20070;-58
2023/03/28 02:55:04;;;;;;;3.33;3.22;;;;;;;;;;4198815;28;20036;-58
2023/03/28 02:57:35;;;;;;;3.28;3.28;;;;;;;;;;4190180;28;20047;-58
2023/03/28 02:59:57;;;;;;;3.15;3.13;;;;;;;;;;4192587;28;20104;-58
2023/03/28 03:02:19;;;;;;;3.50;3.45;;;;;;;;;;4190347;28;20127;-58
2023/03/28 03:04:39;;;;;;;2.78;2.67;;;;;;;;;;4189866;28;20036;-58
2023/03/28 03:07:01;;;;;;;3.42;3.33;;;;;;;;;;4190710;28;20084;-58
2023/03/28 03:09:21;;;;;;;3.85;3.75;;;;;;;;;;4189927;28;20060;-58
2023/03/28 03:11:41;;;;;;;4.30;3.72;;;;;;;;;;4189914;28;20044;-58
2023/03/28 03:14:02;;;;;;;2.70;2.70;;;;;;;;;;4190292;28;20051;-58
2023/03/28 03:16:22;;;;;;;3.10;3.00;;;;;;;;;;4190854;28;20063;-58
2023/03/28 03:18:43;;;;;;;3.50;3.33;;;;;;;;;;4189440;28;20100;-57
2023/03/28 03:21:03;;;;;;;2.75;2.75;;;;;;;;;;4190343;28;20115;-58
2023/03/28 03:23:23;;;;;;;2.65;2.50;;;;;;;;;;4188848;28;20044;-58
2023/03/28 03:25:44;;;;;;;3.75;3.65;;;;;;;;;;4192513;28;20051;-58
2023/03/28 03:28:04;;;;;;;4.90;4.07;;;;;;;;;;4190573;28;20152;-58
2023/03/28 03:30:24;;;;;;;3.33;3.33;;;;;;;;;;4191841;28;20048;-58
2023/03/28 03:32:44;;;;;;;3.25;3.25;;;;;;;;;;4192139;28;20083;-58
2023/03/28 03:35:05;;;;;;;3.90;3.70;;;;;;;;;;4192144;28;20104;-57
2023/03/28 03:37:26;;;;;;;3.30;3.30;;;;;;;;;;4192320;28;20047;-58
2023/03/28 03:39:46;;;;;;;4.22;4.05;;;;;;;;;;4192538;28;20270;-58
2023/03/28 03:42:06;;;;;;;2.88;2.88;;;;;;;;;;4192696;28;20106;-58
2023/03/28 03:44:27;;;;;;;3.03;2.83;;;;;;;;;;4193723;28;20275;-58
2023/03/28 03:46:47;;;;;;;3.53;3.33;;;;;;;;;;4192217;28;20413;-58
2023/03/28 03:49:08;;;;;;;3.78;3.58;;;;;;;;;;4191530;28;20378;-58
2023/03/28 03:51:28;;;;;;;3.00;2.90;;;;;;;;;;4192820;28;20106;-58
2023/03/28 03:53:49;;;;;;;3.10;3.10;;;;;;;;;;4193883;28;20255;-58
2023/03/28 03:56:09;;;;;;;2.75;2.75;;;;;;;;;;4192290;28;20150;-58
2023/03/28 03:58:29;;;;;;;3.35;3.35;;;;;;;;;;4192451;28;20039;-58
2023/03/28 04:00:49;;;;;;;3.08;3.08;;;;;;;;;;4194407;28;20282;-58
2023/03/28 04:03:09;;;;;;;3.22;3.22;;;;;;;;;;4194633;28;20048;-59
2023/03/28 04:05:45;;;;;;;3.13;2.92;;;;;;;;;;4191688;28;20052;-58
2023/03/28 04:08:05;;;;;;;4.07;3.88;;;;;;;;;;4192950;28;20055;-58
2023/03/28 04:10:25;;;;;;;4.97;4.78;;;;;;;;;;4194553;28;20066;-58
2023/03/28 04:12:45;;;;;;;3.05;2.85;;;;;;;;;;4192379;28;20048;-58
2023/03/28 04:15:05;;;;;;;4.50;4.40;;;;;;;;;;4191633;28;20068;-57
2023/03/28 04:17:27;;;;;;;6.07;3.60;;;;;;;;;;4193537;28;20052;-58
2023/03/28 04:19:48;;;;;;;3.00;3.00;;;;;;;;;;4194803;28;20048;-58
2023/03/28 04:22:11;;;;;;;3.35;3.35;;;;;;;;;;4191560;28;20052;-58
2023/03/28 04:24:31;;;;;;;3.33;3.33;;;;;;;;;;4191938;28;20086;-57
2023/03/28 04:26:54;;;;;;;5.80;5.60;;;;;;;;;;4194683;28;20406;-57
2023/03/28 04:29:15;;;;;;;4.78;4.57;;;;;;;;;;4197240;28;20159;-58
2023/03/28 04:31:38;;;;;;;3.08;2.83;;;;;;;;;;4190493;28;20056;-58
2023/03/28 04:33:59;;;;;;;4.28;4.15;;;;;;;;;;4192441;28;20362;-58
2023/03/28 04:36:21;;;;;;;5.07;4.97;;;;;;;;;;4192489;28;20044;-58
2023/03/28 04:38:44;;;;;;;3.22;3.15;;;;;;;;;;4193851;28;20288;-58
2023/03/28 04:41:07;;;;;;;4.35;4.20;;;;;;;;;;4190787;28;20113;-59
2023/03/28 04:43:28;;;;;;;3.88;3.88;;;;;;;;;;4191600;28;20071;-58
2023/03/28 04:45:48;;;;;;;3.33;3.22;;;;;;;;;;4193185;28;20089;-58
2023/03/28 04:48:08;;;;;;;4.35;4.35;;;;;;;;;;4196218;28;20058;-57
2023/03/28 04:50:28;;;;;;;5.03;4.93;;;;;;;;;;4191066;28;20063;-57
2023/03/28 04:52:48;;;;;;;4.63;4.53;;;;;;;;;;4191889;28;20052;-58
2023/03/28 04:55:09;;;;;;;5.03;5.03;;;;;;;;;;4189660;28;20082;-57
2023/03/28 04:57:29;;;;;;;5.07;4.93;;;;;;;;;;4190916;28;20087;-57
2023/03/28 04:59:49;;;;;;;5.43;5.32;;;;;;;;;;4191192;28;20117;-57
2023/03/28 05:02:10;;;;;;;5.00;5.00;;;;;;;;;;4190003;28;20075;-58
2023/03/28 05:04:30;;;;;;;5.40;5.40;;;;;;;;;;4191685;28;20091;-58
2023/03/28 05:06:51;;;;;;;4.43;4.38;;;;;;;;;;4190714;28;20155;-58
2023/03/28 05:09:14;;;;;;;5.88;5.78;;;;;;;;;;4190392;28;20071;-58
2023/03/28 05:11:34;;;;;;;6.68;6.57;;;;;;;;;;4190914;28;20069;-58
2023/03/28 05:13:54;;;;;;;4.68;4.57;;;;;;;;;;4191686;28;20047;-57
2023/03/28 05:16:14;;;;;;;6.20;5.80;;;;;;;;;;4190685;28;20052;-57
2023/03/28 05:18:34;;;;;;;5.95;5.85;;;;;;;;;;4188606;28;20076;-57
2023/03/28 05:20:54;;;;;;;5.32;5.18;;;;;;;;;;4191557;28;20055;-57
2023/03/28 05:23:15;;;;;;;5.47;5.38;;;;;;;;;;4192254;28;20275;-58
2023/03/28 05:25:35;;;;;;;5.60;5.13;;;;;;;;;;4189121;28;20370;-58
2023/03/28 05:27:55;;;;;;;5.93;5.78;;;;;;;;;;4193140;28;20109;-58
2023/03/28 05:30:15;;;;;;;6.90;6.72;;;;;;;;;;4191786;28;20109;-58
2023/03/28 05:32:39;;;;;;;5.18;5.18;;;;;;;;;;4192984;28;20052;-58
2023/03/28 05:34:59;;;;;;;7.70;7.40;;;;;;;;;;4191402;28;20051;-57
2023/03/28 05:37:19;;;;;;;7.57;7.40;;;;;;;;;;4190738;28;20083;-57
2023/03/28 05:39:40;;;;;;;6.80;6.60;;;;;;;;;;4193528;28;20055;-57
2023/03/28 05:42:00;;;;;;;7.95;7.75;;;;;;;;;;4190315;28;20130;-57
2023/03/28 05:44:20;;;;;;;6.22;5.82;;;;;;;;;;4190767;28;20362;-57
2023/03/28 05:46:41;;;;;;;6.85;6.35;;;;;;;;;;4192902;28;20085;-57
2023/03/28 05:49:01;;;;;;;8.77;7.95;;;;;;;;;;4194904;28;20258;-58
2023/03/28 05:51:21;;;;;;;7.75;7.45;;;;;;;;;;4188907;28;20083;-58
2023/03/28 05:53:42;;;;;;;9.93;9.05;;;;;;;;;;4191270;28;20056;-58
2023/03/28 05:56:02;;;;;;;17.23;15.38;;;;;;;;;;4193242;28;20095;-58
2023/03/28 05:58:22;;;;;;;10.52;9.77;;;;;;;;;;4194892;28;20379;-58
2023/03/28 06:00:43;;;;;;;8.30;7.82;;;;;;;;;;4190155;28;20051;-58
2023/03/28 06:03:06;;;;;;;9.68;9.48;;;;;;;;;;4190695;28;20090;-58
2023/03/28 06:05:26;;;;;;;9.97;9.53;;;;;;;;;;4193785;28;20043;-58
2023/03/28 06:07:46;;;;;;;9.23;8.68;;;;;;;;;;4189657;28;20118;-57
2023/03/28 06:10:07;;;;;;;8.77;8.38;;;;;;;;;;4189435;28;20116;-58
2023/03/28 06:12:27;;;;;;;7.88;7.57;;;;;;;;;;4191795;28;20202;-58
2023/03/28 06:14:48;;;;;;;9.68;9.48;;;;;;;;;;4190078;28;20075;-58
2023/03/28 06:17:08;;;;;;;6.53;6.38;;;;;;;;;;4189278;28;20090;-58
2023/03/28 06:19:28;;;;;;;6.35;6.00;;;;;;;;;;4189812;28;20083;-58
2023/03/28 06:21:49;;;;;;;5.65;5.45;;;;;;;;;;4189584;28;20044;-58
2023/03/28 06:24:10;;;;;;;4.20;4.20;;;;;;;;;;4189802;28;20453;-58
2023/03/28 06:26:30;;;;;;;4.30;4.10;;;;;;;;;;4190217;28;20079;-58
2023/03/28 06:28:50;;;;;;;4.32;4.32;;;;;;;;;;4188895;28;20083;-58
2023/03/28 06:31:11;;;;;;;3.60;3.58;;;;;;;;;;4189953;28;20088;-58
2023/03/28 06:33:32;;;;;;;4.95;4.85;;;;;;;;;;4190672;28;20139;-58
2023/03/28 06:35:52;;;;;;;5.13;4.93;;;;;;;;;;4189664;28;20052;-58
2023/03/28 06:38:12;;;;;;;4.53;4.40;;;;;;;;;;4190658;28;20056;-58
2023/03/28 06:40:32;;;;;;;6.32;3.67;;;;;;;;;;4190217;28;20056;-58
2023/03/28 06:42:52;;;;;;;19.55;10.85;;;;;;;;;;4189000;28;20075;-58
2023/03/28 06:45:13;;;;;;;7.40;7.07;;;;;;;;;;4189129;28;20048;-58
2023/03/28 06:47:33;;;;;;;13.20;11.90;;;;;;;;;;4190600;28;20236;-58
2023/03/28 06:49:53;;;;;;;13.18;12.05;;;;;;;;;;4192064;28;20091;-58
2023/03/28 06:52:14;;;;;;;10.88;10.00;;;;;;;;;;4189342;28;20127;-58
2023/03/28 06:54:34;;;;;;;7.10;6.90;;;;;;;;;;4191023;28;20048;-58
2023/03/28 06:56:54;;;;;;;4.93;4.82;;;;;;;;;;4190826;28;20232;-58
2023/03/28 06:59:14;;;;;;;5.20;5.10;;;;;;;;;;4192153;28;20087;-59
2023/03/28 07:01:34;;;;;;;10.23;9.43;;;;;;;;;;4189190;28;20371;-58
2023/03/28 07:03:58;;;;;;;5.78;5.68;;;;;;;;;;4190492;28;20047;-58
2023/03/28 07:06:18;;;;;;;22.75;18.92;;;;;;;;;;4191498;28;20333;-59
2023/03/28 07:08:38;;;;;;;5.97;5.88;;;;;;;;;;4189162;28;20394;-59
2023/03/28 07:10:58;;;;;;;4.88;4.68;;;;;;;;;;4191600;28;20079;-58
2023/03/28 07:13:19;;;;;;;4.30;4.10;;;;;;;;;;4188789;28;20052;-58
2023/03/28 07:15:40;;;;;;;4.40;4.13;;;;;;;;;;4189816;28;20075;-58
2023/03/28 07:18:00;;;;;;;7.68;3.55;;;;;;;;;;4188743;28;20105;-58
2023/03/28 07:20:21;;;;;;;3.53;3.42;;;;;;;;;;4192063;28;20087;-58
2023/03/28 07:22:41;;;;;;;4.18;3.97;;;;;;;;;;4190404;28;20236;-58
2023/03/28 07:25:02;;;;;;;2.53;2.53;;;;;;;;;;4191166;28;20425;-59
2023/03/28 07:27:22;;;;;;;4.15;3.80;;;;;;;;;;4189422;28;20094;-58
2023/03/28 07:29:44;;;;;;;6.50;6.07;;;;;;;;;;4192075;28;20279;-58
2023/03/28 07:32:05;;;;;;;5.55;5.35;;;;;;;;;;4188299;28;20108;-58
2023/03/28 07:34:25;;;;;;;4.03;3.55;;;;;;;;;;4191896;28;20040;-58
2023/03/28 07:36:45;;;;;;;6.28;5.97;;;;;;;;;;4190488;28;20108;-59
2023/03/28 07:39:07;;;;;;;4.63;4.03;;;;;;;;;;4189610;28;20087;-59
2023/03/28 07:41:27;;;;;;;3.35;3.25;;;;;;;;;;4190321;28;20076;-59
2023/03/28 07:43:47;;;;;;;3.78;3.67;;;;;;;;;;4190445;28;20048;-59
2023/03/28 07:46:09;;;;;;;6.15;3.20;;;;;;;;;;4187535;28;20116;-59
2023/03/28 07:48:29;;;;;;;2.97;2.92;;;;;;;;;;4188823;28;20044;-58
2023/03/28 07:50:50;;;;;;;2.53;2.42;;;;;;;;;;4200835;28;20098;-58
2023/03/28 07:53:10;;;;;;;2.90;2.80;;;;;;;;;;4189239;28;20076;-58
2023/03/28 07:55:32;;;;;;;2.17;2.03;;;;;;;;;;4189307;28;20052;-59
2023/03/28 07:58:08;;;;;;;3.05;2.80;;;;;;;;;;4189180;28;20071;-58
2023/03/28 08:00:28;;;;;;;5.03;2.42;;;;;;;;;;4190061;28;20248;-58
2023/03/28 08:02:49;;;;;;;7.50;6.78;;;;;;;;;;4190090;28;20378;-59
2023/03/28 08:05:10;;;;;;;7.05;6.60;;;;;;;;;;4190516;28;20052;-59
2023/03/28 08:07:30;;;;;;;2.80;2.72;;;;;;;;;;4189215;28;20044;-59
2023/03/28 08:09:51;;;;;;;4.60;4.32;;;;;;;;;;4189116;28;20090;-58
2023/03/28 08:12:11;;;;;;;2.65;2.55;;;;;;;;;;4190543;28;20075;-59
2023/03/28 08:14:31;;;;;;;2.03;2.03;;;;;;;;;;4193437;28;20110;-59
2023/03/28 08:16:51;;;;;;;2.80;2.70;;;;;;;;;;4192853;28;20086;-59
2023/03/28 08:19:12;;;;;;;2.30;2.30;;;;;;;;;;4190577;28;20109;-59
2023/03/28 08:21:34;;;;;;;1.40;1.40;;;;;;;;;;4192738;28;20083;-59
2023/03/28 08:23:54;;;;;;;3.95;3.53;;;;;;;;;;4192598;28;20394;-58
2023/03/28 08:26:14;;;;;;;4.30;4.05;;;;;;;;;;4191716;28;20079;-59
2023/03/28 08:28:36;;;;;;;2.40;2.40;;;;;;;;;;4191355;28;20346;-59
2023/03/28 08:30:56;;;;;;;1.73;1.67;;;;;;;;;;4192793;28;20036;-59
2023/03/28 08:33:16;;;;;;;2.17;2.05;;;;;;;;;;4193074;28;20098;-59
2023/03/28 08:35:37;;;;;;;2.22;2.22;;;;;;;;;;4192293;28;20056;-59
2023/03/28 08:37:58;;;;;;;1.77;1.77;;;;;;;;;;4193092;28;20363;-59
2023/03/28 08:40:19;;;;;;;1.60;1.60;;;;;;;;;;4190975;28;20044;-59
2023/03/28 08:42:47;;;;;;;1.20;1.20;;;;;;;;;;4194856;28;20051;-59
2023/03/28 08:45:26;;;;;;;2.25;2.15;;;;;;;;;;4191484;28;20044;-59
2023/03/28 08:47:52;;;;;;;2.25;1.83;;;;;;;;;;4192186;28;20043;-58
2023/03/28 08:50:14;;;;;;;1.98;1.40;;;;;;;;;;4194112;28;20112;-59
2023/03/28 08:52:35;;;;;;;1.30;1.30;;;;;;;;;;4193857;28;20043;-59
2023/03/28 08:55:01;;;;;;;1.40;1.40;;;;;;;;;;4191358;28;20040;-59
2023/03/28 08:57:24;;;;;;;1.30;1.30;;;;;;;;;;4193370;28;20043;-59
2023/03/28 08:59:58;;;;;;;2.65;1.40;;;;;;;;;;4195070;28;20322;-59
2023/03/28 09:02:20;;;;;;;2.47;1.52;;;;;;;;;;4190463;28;20047;-59
2023/03/28 09:04:40;;;;;;;1.40;1.40;;;;;;;;;;4192419;28;20090;-59
2023/03/28 09:07:13;;;;;;;1.13;1.13;;;;;;;;;;4194503;28;20114;-59
2023/03/28 09:09:48;;;;;;;1.35;1.35;;;;;;;;;;4191443;28;20114;-59
2023/03/28 09:12:15;;;;;;;1.20;1.20;;;;;;;;;;4189248;28;20271;-59
2023/03/28 09:14:51;;;;;;;1.20;1.20;;;;;;;;;;4190402;28;20087;-59
2023/03/28 09:17:32;;;;;;;1.10;1.10;;;;;;;;;;4190842;28;20078;-59
2023/03/28 09:20:10;;;;;;;1.20;1.20;;;;;;;;;;4168304;28;20048;-59
2023/03/28 09:22:30;;;;;;;1.35;1.25;;;;;;;;;;4191556;28;20056;-59
2023/03/28 09:24:58;;;;;;;1.10;1.10;;;;;;;;;;4189341;28;20079;-59
2023/03/28 09:27:27;;;;;;;1.10;1.10;;;;;;;;;;4191675;28;20116;-59
2023/03/28 09:29:49;;;;;;;1.10;1.10;;;;;;;;;;4191582;28;20351;-60
2023/03/28 09:32:17;;;;;;;1.38;1.38;;;;;;;;;;4191815;28;20105;-60
2023/03/28 09:34:39;;;;;;;1.30;1.27;;;;;;;;;;4192575;28;20079;-60
2023/03/28 09:37:02;;;;;;;1.33;1.33;;;;;;;;;;4190250;28;20075;-59
2023/03/28 09:39:22;;;;;;;;;;;;;;;;;;4191427;28;20086;-59
2023/03/28 09:41:47;;;;;;;1.33;1.33;;;;;;;;;;4192110;28;19939;-60
2023/03/28 09:44:13;;;;;;;1.20;1.20;;;;;;;;;;4205672;28;20082;-59
2023/03/28 09:46:39;;;;;;;2.25;1.10;;;;;;;;;;4190434;28;20260;-59
2023/03/28 09:49:00;;;;;;;1.15;1.15;;;;;;;;;;4192215;28;20043;-60
2023/03/28 09:51:20;;;;;;;1.08;1.08;;;;;;;;;;4192911;28;20363;-59
2023/03/28 09:53:41;;;;;;;1.08;1.08;;;;;;;;;;4190783;28;20067;-59
2023/03/28 09:56:10;;;;;;;1.10;1.10;;;;;;;;;;4190523;28;20059;-60
2023/03/28 09:58:45;;;;;;;1.05;1.05;;;;;;;;;;4192739;28;20090;-59
2023/03/28 10:01:22;;;;;;;1.10;1.10;;;;;;;;;;4195192;28;20076;-60
2023/03/28 10:03:51;;;;;;;1.20;1.20;;;;;;;;;;4190542;28;20077;-60
2023/03/28 10:06:19;;;;;;;1.48;1.48;;;;;;;;;;4191002;28;20118;-60
2023/03/28 10:08:41;;;;;;;1.00;1.00;;;;;;;;;;4191942;28;20066;-59
2023/03/28 10:11:15;;;;;;;1.50;1.13;;;;;;;;;;4188198;28;20362;-59
2023/03/28 10:13:40;;;;;;;1.10;1.10;;;;;;;;;;4190460;28;20401;-60
2023/03/28 10:16:01;;;;;;;1.50;1.05;;;;;;;;;;4191127;28;20271;-60
2023/03/28 10:18:25;;;;;;;1.17;1.17;;;;;;;;;;4189499;28;20068;-60
2023/03/28 10:20:45;;;;;;;1.58;1.58;;;;;;;;;;4190036;28;20059;-59
2023/03/28 10:23:05;;;;;;;1.20;1.20;;;;;;;;;;4190001;28;20064;-59
2023/03/28 10:25:34;;;;;;;1.10;1.10;;;;;;;;;;4191330;28;20075;-60
2023/03/28 10:27:55;;;;;;;1.10;1.10;;;;;;;;;;4192144;28;20393;-59
2023/03/28 10:30:29;;;;;;;1.10;1.10;;;;;;;;;;4189646;28;20371;-59
2023/03/28 10:33:07;;;;;;;1.20;1.20;;;;;;;;;;4189177;28;20063;-59
2023/03/28 10:35:29;;;;;;;1.20;1.20;;;;;;;;;;4190464;28;20398;-60
2023/03/28 10:37:54;;;;;;;1.20;1.20;;;;;;;;;;4188596;28;20052;-60
2023/03/28 10:40:17;;;;;;;1.00;1.00;;;;;;;;;;4187816;28;20363;-60
2023/03/28 10:42:44;;;;;;;1.02;1.02;;;;;;;;;;4188295;28;20090;-60
2023/03/28 10:45:05;;;;;;;1.58;1.35;;;;;;;;;;4202472;28;20054;-60
2023/03/28 10:47:26;;;;;;;2.20;2.20;;;;;;;;;;4189899;28;20048;-60
2023/03/28 10:49:51;;;;;;;1.50;1.50;;;;;;;;;;4189653;28;20059;-60
2023/03/28 10:52:17;;;;;;;1.50;1.50;;;;;;;;;;4190877;28;20113;-60
2023/03/28 10:54:46;;;;;;;1.40;1.40;;;;;;;;;;4190837;28;20557;-60
2023/03/28 10:57:24;;;;;;;1.48;1.20;;;;;;;;;;4189437;28;20055;-60
2023/03/28 10:59:47;;;;;;;2.03;2.03;;;;;;;;;;4190336;28;20071;-60
2023/03/28 11:02:26;;;;;;;1.10;1.10;;;;;;;;;;4190823;28;20043;-61
2023/03/28 11:05:05;;;;;;;1.40;1.40;;;;;;;;;;4188884;28;20075;-60
2023/03/28 11:07:35;;;;;;;1.10;1.10;;;;;;;;;;4190925;28;20067;-60
2023/03/28 11:10:15;;;;;;;1.02;1.02;;;;;;;;;;4191456;28;20082;-60
2023/03/28 11:12:35;;;;;;;1.00;1.00;;;;;;;;;;4166111;28;20090;-60
2023/03/28 11:15:40;;;;;;;1.08;1.08;;;;;;;;;;4190916;28;20139;-60
2023/03/28 11:18:19;;;;;;;0.98;0.98;;;;;;;;;;4189868;28;20091;-60
2023/03/28 11:20:46;;;;;;;1.00;1.00;;;;;;;;;;4189129;28;20064;-60
2023/03/28 11:23:16;;;;;;;1.10;1.10;;;;;;;;;;4190057;28;20067;-60
2023/03/28 11:25:45;;;;;;;1.20;1.20;;;;;;;;;;4189990;28;20135;-59
2023/03/28 11:28:08;;;;;;;1.00;1.00;;;;;;;;;;4190908;28;20151;-60
2023/03/28 11:30:31;;;;;;;1.00;1.00;;;;;;;;;;4191553;28;20104;-60
2023/03/28 11:32:59;;;;;;;1.10;1.10;;;;;;;;;;4191311;28;20087;-60
2023/03/28 11:35:25;;;;;;;1.00;1.00;;;;;;;;;;4189626;28;20237;-60
2023/03/28 11:38:03;;;;;;;1.00;1.00;;;;;;;;;;4191168;28;20237;-60
2023/03/28 11:40:28;;;;;;;1.00;1.00;;;;;;;;;;4190138;28;20087;-60
2023/03/28 11:42:56;;;;;;;1.00;1.00;;;;;;;;;;4189353;28;20128;-59
2023/03/28 11:45:17;;;;;;;1.10;1.00;;;;;;;;;;4190225;28;20051;-59
2023/03/28 11:47:46;;;;;;;0.98;0.98;;;;;;;;;;4190085;28;20087;-59
2023/03/28 11:50:27;;;;;;;1.00;1.00;;;;;;;;;;4191858;28;20051;-59
2023/03/28 11:52:51;;;;;;;1.00;1.00;;;;;;;;;;4192578;28;20390;-59
2023/03/28 11:55:16;;;;;;;1.00;1.00;;;;;;;;;;4192420;28;20267;-59
2023/03/28 11:57:42;;;;;;;1.00;1.00;;;;;;;;;;4192502;28;20075;-59
2023/03/28 12:00:10;;;;;;;1.00;1.00;;;;;;;;;;4194412;28;20068;-59
2023/03/28 12:03:08;;;;;;;1.00;1.00;;;;;;;;;;4191273;28;20044;-59
2023/03/28 12:05:33;;;;;;;0.90;0.90;;;;;;;;;;4191272;28;20416;-59
2023/03/28 12:08:12;;;;;;;1.00;1.00;;;;;;;;;;4191781;28;20090;-59
2023/03/28 12:10:36;;;;;;;0.90;0.90;;;;;;;;;;4192286;28;20075;-59
2023/03/28 12:13:05;;;;;;;1.00;1.00;;;;;;;;;;4191766;28;20040;-59
2023/03/28 12:15:41;;;;;;;1.00;1.00;;;;;;;;;;4192504;28;20446;-59
2023/03/28 12:18:04;;;;;;;3.05;1.10;;;;;;;;;;4192814;28;20082;-59
2023/03/28 12:20:30;;;;;;;1.05;1.05;;;;;;;;;;4192437;28;20048;-58
2023/03/28 12:22:53;;;;;;;1.02;1.00;;;;;;;;;;4192598;28;20040;-59
2023/03/28 12:25:25;;;;;;;1.00;1.00;;;;;;;;;;4193320;28;20035;-59
2023/03/28 12:28:00;;;;;;;1.00;1.00;;;;;;;;;;4193295;28;20055;-59
2023/03/28 12:30:34;;;;;;;1.00;1.00;;;;;;;;;;4191458;28;20275;-59
2023/03/28 12:33:08;;;;;;;1.30;1.30;;;;;;;;;;4191508;28;20086;-59
2023/03/28 12:35:41;;;;;;;1.00;1.00;;;;;;;;;;4191465;28;20166;-58
2023/03/28 12:38:13;;;;;;;14.43;2.10;;;;;;;;;;4192434;28;20266;-56
2023/03/28 12:40:34;;;;;;;1.00;0.90;;;;;;;;;;4192033;28;20048;-57
2023/03/28 12:42:55;;;;;;;3.53;1.48;;;;;;;;;;4192173;28;20291;-58
2023/03/28 12:45:29;;;;;;;1.00;1.00;;;;;;;;;;4194738;28;20060;-58
2023/03/28 12:47:51;;;;;;;0.90;0.90;;;;;;;;;;4191108;28;20079;-58
2023/03/28 12:50:11;;;;;;;1.00;1.00;;;;;;;;;;4191903;28;20062;-58
2023/03/28 12:52:33;;;;;;;0.90;0.90;;;;;;;;;;4194108;28;20055;-58
2023/03/28 12:54:55;;;;;;;0.90;0.90;;;;;;;;;;4195657;28;20051;-58
2023/03/28 12:57:36;;;;;;;0.80;0.80;;;;;;;;;;4191162;28;20060;-57
2023/03/28 13:00:05;;;;;;;0.82;0.82;;;;;;;;;;4192688;28;20048;-58
2023/03/28 13:02:31;;;;;;;0.90;0.90;;;;;;;;;;4195311;28;20397;-58
2023/03/28 13:04:58;;;;;;;0.90;0.90;;;;;;;;;;4193987;28;20404;-58
2023/03/28 13:07:35;;;;;;;1.08;1.08;;;;;;;;;;4191973;28;20387;-58
2023/03/28 13:10:05;;;;;;;0.90;0.90;;;;;;;;;;4193990;28;20039;-57
2023/03/28 13:12:40;;;;;;;0.90;0.90;;;;;;;;;;4196228;28;20047;-57
2023/03/28 13:15:24;;;;;;;0.90;0.90;;;;;;;;;;4189928;28;20044;-58
2023/03/28 13:17:48;;;;;;;0.85;0.85;;;;;;;;;;4193430;28;20140;-57
2023/03/28 13:20:35;;;;;;;0.90;0.90;;;;;;;;;;4192629;28;20052;-58
2023/03/28 13:23:01;;;;;;;0.98;0.98;;;;;;;;;;4190853;28;20047;-57
2023/03/28 13:25:21;;;;;;;0.80;0.80;;;;;;;;;;4192393;28;20047;-58
2023/03/28 13:27:41;;;;;;;0.80;0.80;;;;;;;;;;4190622;28;20060;-57
2023/03/28 13:30:15;;;;;;;0.80;0.80;;;;;;;;;;4193121;28;20087;-58
2023/03/28 13:32:41;;;;;;;0.88;0.88;;;;;;;;;;4190856;28;20338;-58
2023/03/28 13:35:04;;;;;;;0.90;0.90;;;;;;;;;;4190779;28;20059;-58
2023/03/28 13:37:25;;;;;;;0.90;0.90;;;;;;;;;;4189704;28;20056;-57
2023/03/28 13:39:52;;;;;;;1.20;0.80;;;;;;;;;;4190890;28;20108;-58
2023/03/28 13:42:31;;;;;;;0.80;0.80;;;;;;;;;;4190152;28;20127;-57
2023/03/28 13:44:53;;;;;;;0.82;0.82;;;;;;;;;;4191617;28;20103;-58
2023/03/28 13:47:15;;;;;;;1.40;0.80;;;;;;;;;;4191485;28;20060;-58
2023/03/28 13:49:43;;;;;;;0.90;0.90;;;;;;;;;;4191073;28;20083;-57
2023/03/28 13:52:06;;;;;;;0.80;0.80;;;;;;;;;;4190849;28;20040;-57
2023/03/28 13:54:27;;;;;;;1.17;0.85;;;;;;;;;;4190706;28;20128;-57
2023/03/28 13:56:48;;;;;;;1.00;1.00;;;;;;;;;;4192692;28;20282;-58
2023/03/28 13:59:16;;;;;;;0.75;0.75;;;;;;;;;;4188655;28;20044;-57
2023/03/28 14:01:45;;;;;;;0.80;0.80;;;;;;;;;;4191661;28;20367;-57
2023/03/28 14:04:10;;;;;;;0.90;0.90;;;;;;;;;;4192055;28;20048;-57
2023/03/28 14:06:30;;;;;;;0.90;0.90;;;;;;;;;;4189400;28;20044;-57
2023/03/28 14:08:51;;;;;;;1.00;1.00;;;;;;;;;;4190565;28;20039;-57
2023/03/28 14:11:12;;;;;;;1.85;1.10;;;;;;;;;;4191915;28;20268;-57
2023/03/28 14:13:32;;;;;;;0.90;0.90;;;;;;;;;;4191234;28;20067;-57
2023/03/28 14:15:54;;;;;;;0.90;0.90;;;;;;;;;;4190219;28;20359;-57
2023/03/28 14:18:17;;;;;;;0.85;0.85;;;;;;;;;;4188062;28;20203;-57
2023/03/28 14:20:37;;;;;;;0.80;0.80;;;;;;;;;;4193158;28;20056;-57
2023/03/28 14:23:00;;;;;;;0.80;0.80;;;;;;;;;;4191373;28;20114;-58
2023/03/28 14:25:22;;;;;;;0.90;0.90;;;;;;;;;;4190143;28;20385;-58